ADDS TAF Board (Experimental) INFO Settings
IDs: Format: Expanded Condensed

KMSP - Minneapolis-St Paul, MN, US

Issued at 0520 UTC 28 Jul 2016
Updated at 0834 UTC 28 Jul 2016
Time0753Z 28/09Z 28/10Z 28/11Z 28/12Z 28/13Z 28/14Z 28/15Z 28/16Z 28/17Z 28/18Z 28/19Z 28/20Z 28/21Z
Type OBS PRVL PRVL PRVL PRVL PRVL PRVL PRVL PRVL PRVL PRVL PRVL PRVL PRVL
VIS 10 >6 >6 >6 >6 >6 >6 >6 >6 >6 >6 >6 >6 >6
CIG 8 8 8 8 8 8 8 8 13 13 13 13 13 13
Cover OVC OVC OVC OVC OVC OVC OVC OVC OVC OVC OVC OVC OVC OVC
FltCat IFR IFR IFR IFR IFR IFR IFR IFR MVFR MVFR MVFR MVFR MVFR MVFR
WX -- VCSH VCSH VCSH VCSH VCSH VCSH VCSH VCSH VCSH VCSH VCSH VCSH VCSH
WDir 360 10 10 10 10 10 10 10 30 30 30 30 30 30
WSpd 9 9 9 9 9 9 9 9 9 9 9 9 9 9
WGst -- -- -- -- -- -- -- -- -- -- -- -- -- --
R04/22
XWnd 6 5 5 5 5 5 5 5 2 2 2 2 2 2
HWnd 6 7 7 7 7 7 7 7 9 9 9 9 9 9
R12/30
XWnd 8 8 8 8 8 8 8 8 9 9 9 9 9 9
HWnd -5 -3 -3 -3 -3 -3 -3 -3 -0 -0 -0 -0 -0 -0
R17/35
XWnd 2 3 3 3 3 3 3 3 6 6 6 6 6 6
HWnd -9 -8 -8 -8 -8 -8 -8 -8 -7 -7 -7 -7 -7 -7

Raw TAF
KMSP 280520Z 2806/2912 01009KT P6SM VCSH OVC008
  TEMPO 2806/2808 OVC012
  FM281600 03009KT P6SM VCSH OVC013
  FM290000 03005KT P6SM SCT018 OVC035


Raw METAR
KMSP 280753Z 36009KT 10SM OVC008 19/17 A2998 RMK AO2 SLP150 T01890167
KMSP 280653Z 01009KT 10SM OVC008 19/17 A2999 RMK AO2 SLP152 T01940172
KMSP 280553Z 01008KT 10SM BKN010 OVC020 20/18 A2999 RMK AO2 SLP151 T02000178 10239 20200 402670200 53003

METAR Board
Radar Display
Forecast Discussion

TAF Board Legend

Potential Impact
Threat None Slight Moderate High
Visibility (sm) ≥5.1 5.1>X≥3 3>X≥1 <1
Ceiling (100 ft) ≥30.1 30.1>X≥10 10>X≥5 <5
Wind Speed (kt) <10 10≤X<20 20≤X<30 ≥30
Wind Gust (kt) <15 15≤X<25 25≤X<35 ≥35
Weather No Wx Reported VCTS,-TS,-FZRA,SN TS,FZRA +TS,+FZRA,+SN